createdAt,value
2023-01-09T00:01:26.197Z,2.72
2023-01-09T00:03:54.232Z,3.40
2023-01-09T00:06:22.150Z,3.30
2023-01-09T00:08:50.161Z,3.30
2023-01-09T00:11:18.160Z,3.33
2023-01-09T00:13:47.183Z,3.80
2023-01-09T00:16:15.288Z,3.35
2023-01-09T00:18:44.636Z,3.42
2023-01-09T00:21:14.389Z,3.63
2023-01-09T00:23:42.256Z,3.10
2023-01-09T00:26:12.774Z,2.85
2023-01-09T00:28:41.359Z,2.95
2023-01-09T00:31:10.279Z,2.50
2023-01-09T00:33:41.598Z,3.10
2023-01-09T00:36:11.449Z,2.92
2023-01-09T00:38:39.872Z,2.72
2023-01-09T00:41:10.575Z,2.50
2023-01-09T00:43:44.252Z,2.30
2023-01-09T00:46:13.422Z,2.30
2023-01-09T00:48:44.299Z,1.30
2023-01-09T00:51:13.517Z,1.90
2023-01-09T00:53:43.914Z,1.70
2023-01-09T00:56:16.018Z,1.35
2023-01-09T00:58:44.304Z,1.80
2023-01-09T01:01:12.289Z,1.52
2023-01-09T01:03:40.684Z,1.60
2023-01-09T01:06:26.602Z,1.20
2023-01-09T01:08:56.770Z,1.50
2023-01-09T01:11:24.795Z,1.33
2023-01-09T01:13:52.729Z,1.20
2023-01-09T01:16:21.075Z,1.30
2023-01-09T01:18:48.967Z,1.35
2023-01-09T01:21:17.315Z,1.15
2023-01-09T01:23:45.610Z,1.23
2023-01-09T01:26:16.675Z,1.30
2023-01-09T01:28:45.175Z,0.88
2023-01-09T01:31:18.512Z,1.10
2023-01-09T01:33:46.510Z,1.08
2023-01-09T01:36:16.187Z,1.15
2023-01-09T01:38:44.852Z,1.05
2023-01-09T01:41:14.115Z,1.23
2023-01-09T01:43:52.696Z,1.00
2023-01-09T01:46:20.835Z,0.90
2023-01-09T01:48:52.712Z,1.30
2023-01-09T01:51:22.459Z,1.27
2023-01-09T01:53:53.805Z,1.70
2023-01-09T01:56:27.373Z,1.27
2023-01-09T01:58:59.525Z,1.63
2023-01-09T02:01:28.922Z,1.15
2023-01-09T02:03:59.443Z,1.50
2023-01-09T02:06:28.000Z,1.30
2023-01-09T02:08:56.350Z,1.30
2023-01-09T02:11:25.861Z,1.65
2023-01-09T02:13:54.155Z,1.60
2023-01-09T02:16:35.891Z,1.40
2023-01-09T02:19:18.038Z,1.33
2023-01-09T02:22:01.001Z,1.40
2023-01-09T02:25:01.661Z,1.45
2023-01-09T02:28:06.957Z,1.40
2023-01-09T02:30:44.304Z,1.42
2023-01-09T02:33:37.951Z,1.30
2023-01-09T02:36:17.093Z,2.00
2023-01-09T02:38:54.895Z,0.82
2023-01-09T02:41:30.056Z,0.93
2023-01-09T02:44:15.764Z,0.90
2023-01-09T02:46:45.001Z,1.00
2023-01-09T02:49:14.203Z,0.80
2023-01-09T02:51:52.403Z,0.70
2023-01-09T02:57:29.915Z,0.70
2023-01-09T03:00:09.910Z,0.60
2023-01-09T03:02:47.711Z,0.70
2023-01-09T03:05:21.939Z,0.57
2023-01-09T03:07:57.676Z,0.88
2023-01-09T03:10:33.218Z,0.60
2023-01-09T03:13:03.206Z,0.60
2023-01-09T03:15:35.810Z,0.57
2023-01-09T03:18:07.037Z,0.40
2023-01-09T03:20:35.684Z,0.40
2023-01-09T03:23:07.076Z,0.50
2023-01-09T03:25:35.438Z,0.38
2023-01-09T03:28:05.259Z,0.40
2023-01-09T03:30:34.638Z,0.45
2023-01-09T03:33:04.084Z,0.57
2023-01-09T03:35:31.946Z,0.40
2023-01-09T03:37:59.989Z,0.43
2023-01-09T03:40:28.071Z,0.50
2023-01-09T03:42:55.921Z,0.80
2023-01-09T03:45:23.826Z,0.55
2023-01-09T03:47:53.044Z,0.73
2023-01-09T03:50:22.472Z,0.70
2023-01-09T03:52:50.336Z,0.70
2023-01-09T03:55:18.314Z,0.80
2023-01-09T03:57:46.223Z,0.70
2023-01-09T04:00:15.131Z,1.98
2023-01-09T04:02:43.216Z,0.70
2023-01-09T04:05:11.356Z,0.60
2023-01-09T04:07:40.562Z,0.60
2023-01-09T04:10:09.285Z,0.43
2023-01-09T04:12:37.166Z,0.30
2023-01-09T04:15:05.710Z,0.20
2023-01-09T04:17:33.537Z,0.30
2023-01-09T04:20:01.423Z,0.40
2023-01-09T04:22:31.244Z,0.30
2023-01-09T04:25:00.482Z,0.28
2023-01-09T04:27:28.397Z,0.30
2023-01-09T04:29:56.228Z,0.30
2023-01-09T04:32:24.427Z,0.40
2023-01-09T04:34:52.315Z,0.40
2023-01-09T04:37:20.377Z,0.32
2023-01-09T04:39:48.340Z,0.30
2023-01-09T04:42:17.785Z,0.40
2023-01-09T04:44:45.874Z,0.60
2023-01-09T04:47:14.442Z,0.40
2023-01-09T04:49:42.299Z,0.32
2023-01-09T04:52:10.201Z,0.40
2023-01-09T04:54:39.519Z,0.32
2023-01-09T04:57:07.786Z,0.30
2023-01-09T04:59:37.120Z,1.15
2023-01-09T05:02:05.110Z,0.43
2023-01-09T05:04:33.418Z,0.40
2023-01-09T05:07:01.603Z,0.60
2023-01-09T05:09:29.804Z,0.50
2023-01-09T05:11:58.251Z,0.50
2023-01-09T05:14:26.476Z,0.90
2023-01-09T05:16:56.025Z,0.57
2023-01-09T05:19:24.305Z,0.50
2023-01-09T05:21:52.152Z,0.40
2023-01-09T05:24:20.282Z,0.50
2023-01-09T05:26:48.154Z,0.50
2023-01-09T05:29:16.046Z,0.50
2023-01-09T05:31:43.956Z,0.98
2023-01-09T05:34:13.260Z,0.60
2023-01-09T05:36:41.197Z,0.60
2023-01-09T05:39:09.138Z,0.70
2023-01-09T05:41:37.001Z,0.82
2023-01-09T05:44:05.549Z,0.50
2023-01-09T05:46:33.871Z,0.55
2023-01-09T05:49:01.751Z,0.50
2023-01-09T05:51:31.959Z,0.57
2023-01-09T05:53:59.915Z,0.50
2023-01-09T05:56:27.808Z,0.65
2023-01-09T05:58:55.685Z,0.75
2023-01-09T06:01:23.962Z,0.50
2023-01-09T06:03:52.030Z,0.60
2023-01-09T06:06:19.913Z,0.90
2023-01-09T06:08:49.156Z,0.82
2023-01-09T06:11:16.992Z,0.80
2023-01-09T06:13:44.884Z,0.70
2023-01-09T06:16:13.962Z,0.60
2023-01-09T06:18:41.963Z,0.75
2023-01-09T06:21:09.811Z,0.73
2023-01-09T06:23:37.718Z,0.80
2023-01-09T06:26:07.004Z,0.93
2023-01-09T06:28:34.924Z,0.80
2023-01-09T06:31:03.256Z,0.80
2023-01-09T06:33:32.102Z,0.82
2023-01-09T06:36:00.125Z,0.77
2023-01-09T06:38:28.091Z,1.55
2023-01-09T06:40:55.970Z,1.15
2023-01-09T06:43:25.217Z,1.02
2023-01-09T06:45:53.154Z,0.90
2023-01-09T06:48:21.053Z,1.02
2023-01-09T06:50:49.250Z,0.93
2023-01-09T06:53:17.134Z,0.80
2023-01-09T06:55:45.351Z,0.85
2023-01-09T06:58:13.624Z,0.90
2023-01-09T07:00:43.205Z,0.80
2023-01-09T07:03:11.600Z,0.98
2023-01-09T07:05:42.960Z,0.93
2023-01-09T07:08:10.994Z,0.80
2023-01-09T07:10:38.892Z,0.90
2023-01-09T07:13:06.729Z,1.48
2023-01-09T07:15:34.831Z,0.70
2023-01-09T07:18:04.642Z,1.00
2023-01-09T07:20:32.515Z,1.38
2023-01-09T07:23:00.346Z,0.80
2023-01-09T07:25:28.211Z,1.20
2023-01-09T07:27:56.068Z,0.82
2023-01-09T07:30:24.210Z,0.98
2023-01-09T07:32:52.098Z,0.82
2023-01-09T07:35:24.260Z,0.82
2023-01-09T07:37:52.283Z,0.93
2023-01-09T07:40:20.402Z,0.93
2023-01-09T07:42:48.318Z,0.75
2023-01-09T07:45:16.285Z,0.98
2023-01-09T07:47:44.171Z,0.98
2023-01-09T07:50:12.651Z,0.77
2023-01-09T07:52:41.874Z,0.70
2023-01-09T07:55:10.953Z,1.70
2023-01-09T07:57:38.940Z,1.30
2023-01-09T08:00:10.933Z,1.02
2023-01-09T08:02:38.851Z,1.40
2023-01-09T08:05:08.854Z,1.73
2023-01-09T08:07:36.877Z,1.05
2023-01-09T08:10:06.817Z,1.15
2023-01-09T08:12:34.701Z,1.20
2023-01-09T08:15:02.574Z,0.80
2023-01-09T08:17:30.471Z,1.15
2023-01-09T08:19:58.313Z,1.38
2023-01-09T08:22:26.196Z,1.67
2023-01-09T08:24:54.068Z,0.80
2023-01-09T08:27:23.298Z,1.05
2023-01-09T08:29:51.191Z,1.33
2023-01-09T08:32:19.036Z,0.93
2023-01-09T08:34:46.912Z,1.30
2023-01-09T08:37:14.846Z,1.20
2023-01-09T08:39:42.734Z,1.20
2023-01-09T08:42:28.174Z,1.48
2023-01-09T08:45:15.278Z,1.58
2023-01-09T08:47:43.196Z,1.20
2023-01-09T08:50:11.857Z,1.55
2023-01-09T08:52:39.764Z,1.02
2023-01-09T08:55:08.156Z,2.05
2023-01-09T08:57:35.995Z,1.33
2023-01-09T09:00:06.335Z,1.65
2023-01-09T09:02:34.247Z,1.58
2023-01-09T09:05:02.163Z,1.17
2023-01-09T09:07:30.017Z,1.73
2023-01-09T09:09:57.890Z,1.20
2023-01-09T09:12:25.751Z,0.98
2023-01-09T09:15:11.341Z,1.17
2023-01-09T09:17:41.248Z,1.42
2023-01-09T09:20:11.582Z,1.13
2023-01-09T09:22:39.514Z,1.20
2023-01-09T09:25:07.696Z,1.67
2023-01-09T09:27:36.524Z,1.35
2023-01-09T09:30:04.893Z,1.10
2023-01-09T09:32:33.207Z,1.23
2023-01-09T09:35:02.587Z,1.60
2023-01-09T09:37:30.511Z,1.30
2023-01-09T09:40:01.490Z,0.82
2023-01-09T09:43:12.328Z,1.60
2023-01-09T09:45:51.135Z,1.48
2023-01-09T09:48:29.046Z,1.00
2023-01-09T09:51:13.874Z,1.20
2023-01-09T09:53:48.613Z,1.00
2023-01-09T09:56:21.296Z,1.15
2023-01-09T09:58:52.842Z,0.98
2023-01-09T10:01:25.042Z,1.10
2023-01-09T10:03:55.874Z,1.08
2023-01-09T10:06:29.545Z,1.60
2023-01-09T10:09:02.989Z,1.17
2023-01-09T10:11:40.591Z,1.42
2023-01-09T10:14:22.822Z,1.40
2023-01-09T10:17:08.056Z,0.80
2023-01-09T10:19:49.535Z,1.02
2023-01-09T10:22:25.960Z,1.77
2023-01-09T10:25:13.115Z,1.20
2023-01-09T10:27:57.355Z,1.65
2023-01-09T10:30:32.924Z,1.77
2023-01-09T10:33:12.020Z,1.20
2023-01-09T10:35:56.411Z,1.70
2023-01-09T10:38:30.571Z,1.60
2023-01-09T10:41:04.060Z,3.10
2023-01-09T10:43:40.316Z,1.73
2023-01-09T10:46:12.785Z,1.42
2023-01-09T10:48:46.064Z,2.17
2023-01-09T10:51:18.960Z,1.60
2023-01-09T10:53:51.105Z,1.48
2023-01-09T10:56:23.968Z,2.22
2023-01-09T10:58:52.640Z,1.60
2023-01-09T11:01:25.721Z,1.20
2023-01-09T11:03:53.889Z,1.77
2023-01-09T11:06:25.716Z,1.52
2023-01-09T11:08:58.075Z,1.30
2023-01-09T11:11:34.289Z,1.48
2023-01-09T11:14:08.444Z,1.73
2023-01-09T11:16:36.631Z,3.45
2023-01-09T11:19:04.594Z,2.40
2023-01-09T11:21:35.930Z,1.30
2023-01-09T11:24:29.580Z,1.38
2023-01-09T11:27:23.745Z,3.10
2023-01-09T11:30:16.500Z,1.27
2023-01-09T11:32:46.680Z,1.27
2023-01-09T11:35:28.315Z,1.77
2023-01-09T11:38:07.782Z,1.20
2023-01-09T11:40:49.396Z,1.20
2023-01-09T11:43:30.413Z,1.55
2023-01-09T11:46:02.048Z,1.10
2023-01-09T11:48:36.517Z,1.27
2023-01-09T11:51:07.333Z,1.80
2023-01-09T11:54:00.437Z,1.65
2023-01-09T11:56:30.575Z,1.80
2023-01-09T11:58:59.713Z,1.08
2023-01-09T12:01:39.284Z,1.45
2023-01-09T12:04:17.950Z,1.65
2023-01-09T12:06:58.965Z,3.22
2023-01-09T12:09:34.793Z,1.40
2023-01-09T12:12:10.165Z,1.55
2023-01-09T12:14:49.676Z,1.20
2023-01-09T12:17:41.031Z,1.45
2023-01-09T12:20:23.729Z,1.00
2023-01-09T12:23:01.557Z,1.30
2023-01-09T12:25:40.197Z,1.58
2023-01-09T12:28:28.971Z,1.88
2023-01-09T12:33:38.809Z,1.35
2023-01-09T12:36:21.847Z,1.02
2023-01-09T12:38:55.778Z,1.63
2023-01-09T12:41:44.557Z,1.58
2023-01-09T12:47:46.052Z,1.30
2023-01-09T12:50:50.483Z,1.90
2023-01-09T12:53:24.682Z,1.48
2023-01-09T12:55:58.139Z,1.10
2023-01-09T12:58:34.791Z,1.33
2023-01-09T13:01:07.369Z,2.22
2023-01-09T13:03:42.688Z,1.55
2023-01-09T13:06:16.566Z,1.50
2023-01-09T13:08:48.890Z,1.52
2023-01-09T13:11:23.201Z,1.40
2023-01-09T13:13:55.963Z,1.00
2023-01-09T13:16:29.609Z,0.80
2023-01-09T13:19:05.072Z,0.85
2023-01-09T13:21:33.471Z,0.80
2023-01-09T13:24:07.819Z,1.05
2023-01-09T13:26:40.430Z,1.00
2023-01-09T13:29:16.326Z,0.80
2023-01-09T13:32:08.272Z,0.50
2023-01-09T13:34:39.329Z,0.80
2023-01-09T13:37:21.762Z,1.00
2023-01-09T13:39:57.124Z,0.60
2023-01-09T13:42:39.347Z,0.50
2023-01-09T13:45:19.982Z,0.50
2023-01-09T13:47:48.035Z,0.60
2023-01-09T13:50:27.842Z,0.85
2023-01-09T13:52:55.687Z,0.70
2023-01-09T13:55:30.587Z,0.63
2023-01-09T13:58:22.445Z,0.88
2023-01-09T14:01:01.896Z,0.80
2023-01-09T14:03:33.447Z,0.65
2023-01-09T14:06:24.156Z,0.57
2023-01-09T14:09:12.982Z,0.60
2023-01-09T14:11:41.126Z,0.70
2023-01-09T14:14:25.019Z,0.85
2023-01-09T14:16:53.117Z,0.70
2023-01-09T14:19:37.575Z,0.77
2023-01-09T14:22:08.277Z,0.60
2023-01-09T14:24:43.776Z,0.88
2023-01-09T14:27:41.458Z,1.00
2023-01-09T14:30:33.177Z,0.80
2023-01-09T14:33:03.652Z,0.70
2023-01-09T14:35:46.466Z,0.88
2023-01-09T14:38:34.843Z,0.73
2023-01-09T14:41:10.034Z,0.85
2023-01-09T14:43:53.613Z,1.00
2023-01-09T14:46:23.244Z,1.10
2023-01-09T14:49:04.129Z,1.27
2023-01-09T14:51:36.736Z,1.63
2023-01-09T14:54:16.317Z,1.15
2023-01-09T14:56:47.999Z,0.80
2023-01-09T14:59:17.118Z,1.05
2023-01-09T15:01:49.503Z,1.30
2023-01-09T15:04:27.726Z,1.08
2023-01-09T15:06:55.920Z,0.77
2023-01-09T15:09:28.050Z,1.33
2023-01-09T15:12:01.764Z,0.80
2023-01-09T15:14:35.994Z,2.45
2023-01-09T15:17:05.477Z,0.98
2023-01-09T15:19:34.149Z,0.75
2023-01-09T15:22:04.334Z,1.05
2023-01-09T15:24:34.836Z,1.10
2023-01-09T15:27:05.213Z,0.75
2023-01-09T15:29:33.081Z,0.80
2023-01-09T15:32:06.932Z,1.02
2023-01-09T15:34:35.087Z,0.52
2023-01-09T15:37:03.579Z,0.75
2023-01-09T15:39:36.835Z,0.70
2023-01-09T15:42:22.757Z,0.95
2023-01-09T15:44:53.773Z,0.50
2023-01-09T15:47:24.421Z,0.63
2023-01-09T15:49:53.343Z,0.82
2023-01-09T15:52:23.066Z,0.70
2023-01-09T15:54:52.674Z,1.02
2023-01-09T15:57:35.589Z,0.80
2023-01-09T16:00:33.374Z,1.00
2023-01-09T16:03:11.762Z,0.77
2023-01-09T16:05:44.818Z,0.63
2023-01-09T16:08:31.495Z,0.90
2023-01-09T16:11:04.082Z,0.75
2023-01-09T16:13:35.691Z,0.90
2023-01-09T16:16:04.270Z,0.82
2023-01-09T16:18:34.937Z,0.90
2023-01-09T16:21:20.898Z,0.85
2023-01-09T16:23:57.501Z,0.90
2023-01-09T16:26:28.868Z,0.90
2023-01-09T16:28:57.131Z,0.70
2023-01-09T16:31:28.936Z,0.73
2023-01-09T16:34:05.888Z,0.90
2023-01-09T16:36:35.801Z,0.70
2023-01-09T16:39:05.003Z,0.93
2023-01-09T16:41:51.757Z,1.23
2023-01-09T16:44:19.625Z,1.00
2023-01-09T16:46:47.691Z,1.10
2023-01-09T16:49:19.112Z,1.10
2023-01-09T16:51:47.086Z,1.13
2023-01-09T16:54:14.984Z,2.35
2023-01-09T16:56:46.537Z,1.05
2023-01-09T16:59:15.235Z,1.27
2023-01-09T17:01:43.654Z,1.08
2023-01-09T17:04:12.866Z,1.10
2023-01-09T17:06:41.812Z,1.10
2023-01-09T17:09:12.951Z,0.98
2023-01-09T17:11:41.113Z,0.90
2023-01-09T17:14:12.658Z,1.10
2023-01-09T17:16:43.171Z,1.13
2023-01-09T17:19:16.963Z,0.90
2023-01-09T17:21:44.851Z,0.80
2023-01-09T17:24:30.122Z,0.95
2023-01-09T17:27:15.860Z,0.85
2023-01-09T17:29:45.347Z,0.93
2023-01-09T17:32:15.715Z,1.10
2023-01-09T17:34:43.668Z,0.85
2023-01-09T17:37:15.723Z,0.90
2023-01-09T17:39:43.825Z,0.70
2023-01-09T17:42:12.021Z,1.00
2023-01-09T17:44:39.908Z,0.90
2023-01-09T17:47:15.672Z,0.85
2023-01-09T17:49:43.607Z,1.10
2023-01-09T17:52:11.479Z,0.88
2023-01-09T17:54:39.538Z,0.95
2023-01-09T17:57:08.450Z,1.05
2023-01-09T17:59:36.298Z,1.52
2023-01-09T18:02:04.205Z,1.40
2023-01-09T18:04:33.414Z,2.00
2023-01-09T18:07:01.393Z,1.40
2023-01-09T18:09:29.232Z,1.35
2023-01-09T18:11:57.105Z,0.90
2023-01-09T18:14:25.005Z,1.17
2023-01-09T18:16:52.921Z,1.35
2023-01-09T18:19:20.768Z,0.88
2023-01-09T18:21:51.235Z,1.10
2023-01-09T18:24:19.101Z,1.00
2023-01-09T18:26:46.958Z,0.90
2023-01-09T18:29:15.239Z,0.80
2023-01-09T18:31:43.312Z,1.33
2023-01-09T18:34:11.302Z,1.10
2023-01-09T18:36:39.578Z,1.23
2023-01-09T18:39:09.086Z,1.83
2023-01-09T18:41:37.097Z,1.55
2023-01-09T18:44:05.062Z,2.13
2023-01-09T18:46:33.117Z,2.15
2023-01-09T18:49:02.549Z,1.48
2023-01-09T18:51:31.348Z,1.55
2023-01-09T18:53:59.455Z,1.45
2023-01-09T18:56:28.874Z,1.23
2023-01-09T18:58:57.712Z,1.60
2023-01-09T19:01:26.212Z,1.20
2023-01-09T19:03:54.308Z,1.45
2023-01-09T19:06:22.250Z,1.20
2023-01-09T19:08:50.381Z,2.03
2023-01-09T19:11:18.323Z,1.55
2023-01-09T19:13:47.903Z,1.85
2023-01-09T19:16:15.823Z,1.73
2023-01-09T19:18:44.643Z,2.00
2023-01-09T19:21:14.571Z,2.28
2023-01-09T19:23:44.087Z,1.70
2023-01-09T19:26:17.891Z,1.95
2023-01-09T19:28:47.073Z,1.65
2023-01-09T19:31:15.430Z,1.65
2023-01-09T19:33:43.821Z,1.50
2023-01-09T19:36:11.956Z,1.50
2023-01-09T19:38:39.973Z,1.50
2023-01-09T19:41:12.957Z,1.80
2023-01-09T19:43:41.704Z,1.90
2023-01-09T19:46:13.835Z,1.13
2023-01-09T19:48:42.731Z,3.38
2023-01-09T19:51:11.503Z,1.60
2023-01-09T19:53:39.871Z,1.50
2023-01-09T19:56:13.185Z,1.27
2023-01-09T19:58:41.478Z,1.02
2023-01-09T20:01:13.608Z,1.38
2023-01-09T20:03:42.608Z,1.20
2023-01-09T20:06:14.444Z,1.30
2023-01-09T20:08:42.660Z,1.02
2023-01-09T20:11:10.536Z,1.05
2023-01-09T20:13:38.635Z,1.20
2023-01-09T20:16:07.745Z,1.13
2023-01-09T20:18:36.948Z,1.20
2023-01-09T20:21:05.098Z,0.90
2023-01-09T20:23:33.386Z,1.40
2023-01-09T20:26:01.994Z,1.10
2023-01-09T20:28:29.867Z,1.13
2023-01-09T20:30:57.762Z,1.02
2023-01-09T20:33:25.999Z,1.02
2023-01-09T20:35:55.295Z,0.90
2023-01-09T20:38:25.313Z,0.88
2023-01-09T20:40:53.293Z,0.95
2023-01-09T20:43:21.227Z,1.25
2023-01-09T20:45:49.160Z,1.02
2023-01-09T20:48:17.104Z,1.35
2023-01-09T20:50:44.975Z,1.45
2023-01-09T20:53:14.172Z,1.48
2023-01-09T20:55:42.003Z,1.00
2023-01-09T20:58:09.861Z,1.42
2023-01-09T21:00:37.740Z,1.65
2023-01-09T21:03:05.925Z,1.55
2023-01-09T21:05:33.774Z,1.60
2023-01-09T21:08:01.601Z,1.30
2023-01-09T21:10:30.801Z,1.00
2023-01-09T21:12:58.644Z,1.52
2023-01-09T21:15:26.663Z,2.05
2023-01-09T21:17:55.730Z,1.10
2023-01-09T21:20:23.939Z,1.92
2023-01-09T21:22:52.024Z,1.30
2023-01-09T21:25:19.989Z,1.10
2023-01-09T21:27:50.299Z,1.00
2023-01-09T21:30:18.222Z,1.70
2023-01-09T21:32:46.176Z,1.02
2023-01-09T21:35:14.107Z,1.88
2023-01-09T21:37:41.990Z,1.58
2023-01-09T21:40:13.920Z,1.60
2023-01-09T21:42:59.489Z,1.38
2023-01-09T21:45:46.502Z,1.40
2023-01-09T21:48:14.816Z,1.60
2023-01-09T21:50:42.664Z,1.63
2023-01-09T21:53:10.592Z,1.60
2023-01-09T21:55:38.543Z,2.28
2023-01-09T21:58:06.461Z,1.60
2023-01-09T22:00:35.786Z,1.40
2023-01-09T22:03:05.801Z,1.63
2023-01-09T22:05:36.614Z,1.90
2023-01-09T22:08:04.455Z,1.27
2023-01-09T22:10:32.360Z,1.48
2023-01-09T22:13:17.551Z,1.83
2023-01-09T22:15:48.116Z,1.15
2023-01-09T22:18:15.967Z,1.45
2023-01-09T22:20:43.878Z,1.50
2023-01-09T22:23:11.849Z,1.17
2023-01-09T22:25:41.554Z,1.42
2023-01-09T22:28:10.046Z,1.70
2023-01-09T22:30:40.541Z,1.25
2023-01-09T22:33:11.536Z,1.20
2023-01-09T22:35:40.033Z,1.30
2023-01-09T22:38:08.119Z,1.08
2023-01-09T22:40:37.257Z,1.58
2023-01-09T22:43:05.161Z,1.67
2023-01-09T22:45:33.390Z,1.33
2023-01-09T22:48:01.241Z,1.40
2023-01-09T22:50:30.457Z,1.00
2023-01-09T22:52:58.287Z,0.90
2023-01-09T22:55:26.232Z,0.63
2023-01-09T22:57:54.125Z,0.85
2023-01-09T23:00:22.098Z,0.68
2023-01-09T23:02:50.084Z,1.10
2023-01-09T23:05:19.551Z,0.70
2023-01-09T23:07:48.767Z,0.73
2023-01-09T23:10:17.541Z,0.80
2023-01-09T23:12:48.448Z,0.73
2023-01-09T23:15:16.431Z,0.70
2023-01-09T23:17:44.375Z,0.80
2023-01-09T23:20:12.996Z,0.70
2023-01-09T23:22:40.872Z,0.70
2023-01-09T23:25:14.213Z,0.85
2023-01-09T23:27:42.194Z,0.70
2023-01-09T23:30:11.429Z,0.88
2023-01-09T23:32:40.140Z,0.82
2023-01-09T23:35:08.511Z,0.70
2023-01-09T23:37:36.881Z,1.00
2023-01-09T23:40:05.514Z,1.00
2023-01-09T23:42:52.193Z,0.77
2023-01-09T23:45:20.131Z,0.90
2023-01-09T23:47:48.060Z,0.90
2023-01-09T23:50:16.071Z,1.00
2023-01-09T23:52:43.923Z,0.80
2023-01-09T23:55:12.008Z,0.80
2023-01-09T23:57:41.244Z,0.80
